Time;durP1;ratioP1;P1;durP2;ratioP2;P2;SDS_P1;SDS_P2;PMS_P1;PMS_P2;Temp;Humidity;BMP_temperature;BMP_pressure;BME280_temperature;BME280_humidity;BME280_pressure;Samples;Min_cycle;Max_cycle;Signal;HPM_P1;HPM_P2
2023/10/03 00:00:31;;;;;;;36.90;19.38;;;17.40;99.90;;;;;;5024842;28;20273;-83
2023/10/03 00:03:08;;;;;;;34.03;18.58;;;17.40;99.90;;;;;;5021268;28;20052;-83
2023/10/03 00:05:35;;;;;;;36.35;19.10;;;17.40;99.90;;;;;;5040678;28;20384;-83
2023/10/03 00:08:06;;;;;;;36.30;19.40;;;17.40;99.90;;;;;;5000552;28;20090;-83
2023/10/03 00:10:45;;;;;;;40.42;19.88;;;17.40;99.90;;;;;;5004243;28;20076;-83
2023/10/03 00:13:12;;;;;;;38.17;20.45;;;17.40;99.90;;;;;;4987365;28;20091;-83
2023/10/03 00:15:45;;;;;;;41.00;19.98;;;17.40;99.90;;;;;;5003390;28;20087;-83
2023/10/03 00:18:15;;;;;;;42.92;20.45;;;17.40;99.90;;;;;;4995531;28;20473;-83
2023/10/03 00:20:41;;;;;;;40.00;19.88;;;17.40;99.90;;;;;;5002763;28;20037;-82
2023/10/03 00:23:07;;;;;;;35.70;19.08;;;17.40;99.90;;;;;;5021625;28;20124;-82
2023/10/03 00:25:35;;;;;;;39.70;20.35;;;17.40;99.90;;;;;;4988071;28;20084;-83
2023/10/03 00:28:01;;;;;;;35.35;18.58;;;17.40;99.90;;;;;;5006850;28;20416;-83
2023/10/03 00:30:29;;;;;;;36.20;19.58;;;17.40;99.90;;;;;;4990353;28;20224;-83
2023/10/03 00:32:58;;;;;;;35.90;19.05;;;17.30;99.90;;;;;;5005576;28;20109;-83
2023/10/03 00:35:26;;;;;;;36.55;19.75;;;17.30;99.90;;;;;;4988094;28;20034;-83
2023/10/03 00:37:53;;;;;;;33.70;18.83;;;17.30;99.90;;;;;;4991238;28;20101;-83
2023/10/03 00:42:47;;;;;;;33.72;18.55;;;17.30;99.90;;;;;;5005799;28;20046;-83
2023/10/03 00:45:21;;;;;;;36.17;19.27;;;17.30;99.90;;;;;;5003361;28;20191;-83
2023/10/03 00:47:53;;;;;;;34.90;19.23;;;17.30;99.90;;;;;;5005040;28;20045;-83
2023/10/03 00:50:20;;;;;;;38.60;20.05;;;17.30;99.90;;;;;;4991857;28;20041;-83
2023/10/03 00:52:58;;;;;;;35.63;19.65;;;17.20;99.90;;;;;;5004056;28;20073;-83
2023/10/03 00:55:35;;;;;;;34.33;18.88;;;17.20;99.90;;;;;;4983252;28;20197;-83
2023/10/03 00:58:06;;;;;;;34.72;19.58;;;17.20;99.90;;;;;;5001737;28;20805;-83
2023/10/03 01:00:41;;;;;;;35.85;18.70;;;17.20;99.90;;;;;;5004441;28;20033;-83
2023/10/03 01:03:24;;;;;;;36.50;20.40;;;17.20;99.90;;;;;;4981463;28;20037;-83
2023/10/03 01:05:52;;;;;;;37.00;20.27;;;17.10;99.90;;;;;;5002945;28;20301;-83
2023/10/03 01:08:17;;;;;;;36.85;18.65;;;17.10;99.90;;;;;;5004422;28;20068;-83
2023/10/03 01:10:43;;;;;;;34.25;19.63;;;17.10;99.90;;;;;;5003543;28;20416;-83
2023/10/03 01:13:12;;;;;;;37.55;19.80;;;17.10;99.90;;;;;;4989003;28;20377;-83
2023/10/03 01:15:38;;;;;;;40.40;20.23;;;17.20;99.90;;;;;;5020763;28;20033;-83
2023/10/03 01:18:05;;;;;;;33.10;19.50;;;17.10;99.90;;;;;;5004109;28;20492;-83
2023/10/03 01:20:40;;;;;;;36.80;19.27;;;17.20;99.90;;;;;;5007502;28;20139;-83
2023/10/03 01:23:10;;;;;;;38.08;19.25;;;17.20;99.90;;;;;;4984482;28;20083;-83
2023/10/03 01:25:42;;;;;;;38.72;19.33;;;17.10;99.90;;;;;;4987834;28;20127;-83
2023/10/03 01:28:11;;;;;;;36.45;18.85;;;17.10;99.90;;;;;;4997065;28;20045;-82
2023/10/03 01:30:37;;;;;;;39.92;20.05;;;17.10;99.90;;;;;;5019167;28;20045;-82
2023/10/03 01:33:04;;;;;;;35.42;19.00;;;17.10;99.90;;;;;;4986131;28;20590;-82
2023/10/03 01:35:30;;;;;;;37.35;18.92;;;17.10;99.90;;;;;;5004330;28;20042;-82
2023/10/03 01:37:55;;;;;;;37.70;19.10;;;17.00;99.90;;;;;;4987722;28;20048;-82
2023/10/03 01:40:22;;;;;;;37.30;17.98;;;17.00;99.90;;;;;;4985511;28;20049;-82
2023/10/03 01:42:48;;;;;;;37.15;18.77;;;17.00;99.90;;;;;;5015912;28;20081;-83
2023/10/03 01:45:17;;;;;;;34.30;18.45;;;17.10;99.90;;;;;;4991348;28;20045;-83
2023/10/03 01:47:45;;;;;;;32.80;17.67;;;17.00;99.90;;;;;;4994760;28;20041;-83
2023/10/03 01:50:12;;;;;;;35.70;16.98;;;17.10;99.90;;;;;;5024546;28;20528;-82
2023/10/03 01:52:40;;;;;;;34.63;17.55;;;17.10;99.90;;;;;;4992203;28;20100;-82
2023/10/03 01:55:12;;;;;;;34.17;17.15;;;17.20;99.90;;;;;;4996717;28;20678;-83
2023/10/03 01:57:38;;;;;;;35.28;16.98;;;17.20;99.90;;;;;;5008533;28;20045;-83
2023/10/03 02:00:11;;;;;;;33.08;16.90;;;17.20;99.90;;;;;;5010854;28;20046;-83
2023/10/03 02:02:36;;;;;;;30.98;16.75;;;17.20;99.90;;;;;;5024020;28;20042;-83
2023/10/03 02:05:02;;;;;;;35.03;16.55;;;17.20;99.90;;;;;;5024355;28;20053;-82
2023/10/03 02:07:28;;;;;;;31.23;15.57;;;17.20;99.90;;;;;;4985903;28;20049;-83
2023/10/03 02:09:55;;;;;;;32.38;16.27;;;17.20;99.90;;;;;;4999290;28;20453;-83
2023/10/03 02:12:21;;;;;;;36.10;17.20;;;17.20;99.90;;;;;;4993872;28;20045;-82
2023/10/03 02:14:49;;;;;;;38.22;17.23;;;17.20;99.90;;;;;;4999374;28;20494;-82
2023/10/03 02:17:16;;;;;;;33.20;15.25;;;17.10;99.90;;;;;;4995084;28;20037;-82
2023/10/03 02:19:43;;;;;;;32.40;15.70;;;17.10;99.90;;;;;;4995246;28;20115;-82
2023/10/03 02:22:11;;;;;;;33.45;17.38;;;17.10;99.90;;;;;;4997149;28;20128;-82
2023/10/03 02:24:37;;;;;;;32.45;16.33;;;17.20;99.90;;;;;;5012904;28;20091;-82
2023/10/03 02:27:05;;;;;;;32.70;15.75;;;17.20;99.90;;;;;;5007784;28;20511;-82
2023/10/03 02:29:31;;;;;;;35.13;16.23;;;17.20;99.90;;;;;;4993725;28;20086;-83
2023/10/03 02:31:58;;;;;;;34.00;16.05;;;17.20;99.90;;;;;;4994616;28;20481;-82
2023/10/03 02:34:26;;;;;;;35.40;16.73;;;17.20;99.90;;;;;;5011231;28;20049;-82
2023/10/03 02:36:52;;;;;;;33.53;15.45;;;17.20;99.90;;;;;;4996603;28;20038;-82
2023/10/03 02:39:25;;;;;;;31.15;15.90;;;17.20;99.90;;;;;;5015567;28;20132;-82
2023/10/03 02:41:51;;;;;;;32.22;15.75;;;17.20;99.90;;;;;;5013644;28;20084;-83
2023/10/03 02:44:17;;;;;;;34.03;15.55;;;17.20;99.90;;;;;;5007168;28;20456;-83
2023/10/03 02:46:44;;;;;;;34.38;15.68;;;17.30;99.90;;;;;;4990481;28;20057;-82
2023/10/03 02:49:10;;;;;;;32.00;15.48;;;17.40;99.90;;;;;;5008153;28;20120;-82
2023/10/03 02:51:36;;;;;;;33.08;16.00;;;17.40;99.90;;;;;;5005270;28;20464;-82
2023/10/03 02:54:02;;;;;;;33.80;15.35;;;17.40;99.90;;;;;;5011167;28;20055;-82
2023/10/03 02:56:28;;;;;;;32.47;16.15;;;17.40;99.90;;;;;;4989529;28;20049;-82
2023/10/03 02:58:54;;;;;;;31.98;14.80;;;17.50;99.90;;;;;;5007313;28;20048;-82
2023/10/03 03:01:23;;;;;;;29.75;15.55;;;17.40;99.90;;;;;;5000824;28;20077;-82
2023/10/03 03:03:49;;;;;;;34.95;16.40;;;17.50;99.90;;;;;;5005916;28;20120;-82
2023/10/03 03:06:15;;;;;;;32.58;13.90;;;17.40;99.90;;;;;;5007783;28;20552;-82
2023/10/03 03:08:44;;;;;;;29.20;14.52;;;17.40;99.90;;;;;;5001635;28;20048;-82
2023/10/03 03:11:09;;;;;;;35.15;15.23;;;17.50;99.90;;;;;;5023875;28;20139;-82
2023/10/03 03:13:35;;;;;;;31.48;15.57;;;17.40;99.90;;;;;;5024913;28;20123;-82
2023/10/03 03:16:04;;;;;;;35.00;16.10;;;17.50;99.90;;;;;;5012792;28;20056;-82
2023/10/03 03:18:36;;;;;;;30.33;15.50;;;17.50;99.90;;;;;;5013555;28;20115;-82
2023/10/03 03:21:04;;;;;;;32.78;15.05;;;17.50;99.90;;;;;;5026124;28;20041;-82
2023/10/03 03:23:36;;;;;;;29.63;14.40;;;17.50;99.90;;;;;;5007438;28;20386;-82
2023/10/03 03:26:18;;;;;;;30.33;14.18;;;17.60;99.90;;;;;;5025270;28;20060;-82
2023/10/03 03:28:46;;;;;;;32.35;15.40;;;17.50;99.90;;;;;;5026213;28;20404;-82
2023/10/03 03:31:22;;;;;;;27.75;14.98;;;17.60;99.90;;;;;;5023967;28;20033;-82
2023/10/03 03:33:57;;;;;;;37.38;15.05;;;17.60;99.90;;;;;;5024035;28;20121;-82
2023/10/03 03:36:24;;;;;;;;;;;17.60;99.90;;;;;;5024941;28;20044;-82
2023/10/03 03:38:51;;;;;;;29.55;14.45;;;17.60;99.90;;;;;;5005372;28;20260;-82
2023/10/03 03:41:18;;;;;;;32.13;14.75;;;17.60;99.90;;;;;;5010602;28;20473;-82
2023/10/03 03:43:44;;;;;;;29.10;14.13;;;17.60;99.90;;;;;;5007295;28;20033;-82
2023/10/03 03:46:10;;;;;;;28.75;14.25;;;17.60;99.90;;;;;;5022566;28;20416;-82
2023/10/03 03:48:36;;;;;;;29.73;14.18;;;17.60;99.90;;;;;;5026446;28;20056;-82
2023/10/03 03:51:06;;;;;;;30.40;14.05;;;17.60;99.90;;;;;;5022562;28;20048;-82
2023/10/03 03:53:33;;;;;;;28.02;13.10;;;17.60;99.90;;;;;;5022442;28;20326;-82
2023/10/03 03:56:07;;;;;;;29.10;13.35;;;17.70;99.90;;;;;;5014950;28;20048;-81
2023/10/03 03:58:40;;;;;;;27.73;13.23;;;17.80;99.90;;;;;;5010643;28;20102;-82
2023/10/03 04:01:14;;;;;;;26.67;13.40;;;17.80;99.90;;;;;;5004426;28;20044;-82
2023/10/03 04:03:42;;;;;;;26.73;12.70;;;17.80;99.90;;;;;;5021813;28;20037;-82
2023/10/03 04:06:08;;;;;;;25.77;12.15;;;17.70;99.90;;;;;;5009744;28;20157;-82
2023/10/03 04:08:35;;;;;;;27.00;12.50;;;17.70;99.90;;;;;;5005197;28;20046;-82
2023/10/03 04:11:02;;;;;;;30.02;13.50;;;17.80;99.90;;;;;;4987889;28;20451;-82
2023/10/03 04:13:30;;;;;;;27.77;13.10;;;17.80;99.90;;;;;;4988040;28;20874;-82
2023/10/03 04:15:58;;;;;;;31.50;13.18;;;17.80;99.90;;;;;;5007641;28;20049;-82
2023/10/03 04:18:24;;;;;;;29.23;13.68;;;17.80;99.90;;;;;;4988731;28;20100;-82
2023/10/03 04:20:50;;;;;;;28.75;12.93;;;17.80;99.90;;;;;;4987592;28;20503;-82
2023/10/03 04:23:16;;;;;;;25.85;12.93;;;17.80;99.90;;;;;;4987569;28;20047;-83
2023/10/03 04:25:42;;;;;;;28.35;12.75;;;17.80;99.90;;;;;;5006819;28;20037;-82
2023/10/03 04:28:11;;;;;;;28.88;13.13;;;17.90;99.90;;;;;;5007981;28;20051;-82
2023/10/03 04:30:39;;;;;;;29.35;13.07;;;18.00;99.90;;;;;;5003394;28;20037;-83
2023/10/03 04:33:05;;;;;;;26.02;11.90;;;18.00;99.90;;;;;;5005418;28;20038;-83
2023/10/03 04:35:30;;;;;;;26.30;12.55;;;18.10;99.90;;;;;;5001522;28;20030;-82
2023/10/03 04:37:57;;;;;;;23.23;12.40;;;18.10;99.90;;;;;;5006551;28;20096;-83
2023/10/03 04:40:28;;;;;;;25.98;11.95;;;18.10;99.90;;;;;;5005144;28;20556;-82
2023/10/03 04:43:05;;;;;;;27.30;13.07;;;18.20;99.90;;;;;;5004259;28;20655;-82
2023/10/03 04:45:32;;;;;;;27.67;12.75;;;18.20;99.90;;;;;;4987777;28;20029;-82
2023/10/03 04:47:58;;;;;;;27.58;13.23;;;18.30;99.90;;;;;;5006069;28;20081;-83
2023/10/03 04:50:26;;;;;;;26.90;12.88;;;18.30;99.90;;;;;;4989314;28;20428;-82
2023/10/03 04:52:53;;;;;;;28.17;12.13;;;18.30;99.90;;;;;;5004392;28;20037;-82
2023/10/03 04:55:23;;;;;;;26.65;12.23;;;18.40;99.90;;;;;;4988155;28;20033;-82
2023/10/03 04:57:50;;;;;;;32.35;12.68;;;18.40;99.90;;;;;;5001766;28;20140;-83
2023/10/03 05:00:21;;;;;;;27.02;13.57;;;18.50;99.90;;;;;;5001456;28;20052;-82
2023/10/03 05:02:55;;;;;;;28.83;12.73;;;18.40;99.90;;;;;;4998337;28;20291;-83
2023/10/03 05:05:23;;;;;;;27.92;12.45;;;18.40;99.90;;;;;;4987637;28;20034;-82
2023/10/03 05:07:53;;;;;;;23.63;11.10;;;18.40;99.90;;;;;;4991071;28;20056;-83
2023/10/03 05:10:23;;;;;;;24.10;10.02;;;18.40;99.90;;;;;;5018740;28;20113;-82
2023/10/03 05:12:51;;;;;;;26.50;11.90;;;18.40;99.90;;;;;;5004072;28;20051;-82
2023/10/03 05:15:18;;;;;;;30.42;12.32;;;18.50;99.90;;;;;;5022135;28;20045;-82
2023/10/03 05:17:48;;;;;;;25.42;11.55;;;18.50;99.90;;;;;;5007465;28;20115;-82
2023/10/03 05:20:17;;;;;;;24.73;11.35;;;18.50;99.90;;;;;;5037114;28;20044;-82
2023/10/03 05:22:45;;;;;;;27.60;11.70;;;18.50;99.90;;;;;;5006563;28;20386;-82
2023/10/03 05:25:12;;;;;;;25.88;10.93;;;18.60;99.90;;;;;;5008047;28;20453;-83
2023/10/03 05:27:42;;;;;;;23.42;11.02;;;18.60;99.90;;;;;;5024086;28;20088;-82
2023/10/03 05:30:10;;;;;;;22.17;10.77;;;18.70;99.90;;;;;;5008239;28;20049;-82
2023/10/03 05:32:39;;;;;;;21.73;10.48;;;18.70;99.90;;;;;;5009643;28;20041;-83
2023/10/03 05:35:06;;;;;;;24.40;11.07;;;18.80;99.90;;;;;;5027153;28;20088;-82
2023/10/03 05:37:35;;;;;;;24.38;11.80;;;18.90;99.90;;;;;;5028560;28;20040;-82
2023/10/03 05:40:20;;;;;;;25.40;10.30;;;18.90;99.90;;;;;;5016001;28;20095;-83
2023/10/03 05:42:50;;;;;;;22.88;10.25;;;19.00;99.90;;;;;;5017013;28;20603;-82
2023/10/03 05:45:18;;;;;;;25.90;10.57;;;19.00;99.90;;;;;;5038942;28;20048;-83
2023/10/03 05:47:45;;;;;;;24.98;10.93;;;19.00;99.90;;;;;;5010698;28;20045;-83
2023/10/03 05:50:21;;;;;;;27.65;11.98;;;19.10;99.90;;;;;;5032101;28;20056;-83
2023/10/03 05:52:48;;;;;;;26.27;10.82;;;19.10;99.90;;;;;;5036273;28;20045;-82
2023/10/03 05:55:14;;;;;;;24.15;11.45;;;19.10;99.90;;;;;;5020113;28;20037;-83
2023/10/03 05:57:42;;;;;;;28.33;10.85;;;19.10;99.90;;;;;;5015681;28;20052;-82
2023/10/03 06:00:17;;;;;;;28.92;11.93;;;19.10;99.90;;;;;;5030878;28;20048;-83
2023/10/03 06:02:50;;;;;;;26.27;11.45;;;19.20;99.90;;;;;;5015816;28;20564;-82
2023/10/03 06:05:16;;;;;;;24.90;11.52;;;19.10;99.90;;;;;;5032763;28;20083;-83
2023/10/03 06:07:42;;;;;;;26.15;10.77;;;19.10;99.90;;;;;;5030625;28;20608;-83
2023/10/03 06:10:10;;;;;;;25.40;10.70;;;19.10;99.90;;;;;;5016693;28;20041;-83
2023/10/03 06:12:37;;;;;;;27.70;12.27;;;19.10;99.90;;;;;;5009139;28;20047;-83
2023/10/03 06:15:04;;;;;;;24.80;11.50;;;19.10;99.90;;;;;;5031661;28;20045;-82
2023/10/03 06:17:33;;;;;;;27.77;11.77;;;19.10;99.90;;;;;;5014285;28;20040;-83
2023/10/03 06:20:05;;;;;;;22.50;11.55;;;19.10;99.90;;;;;;5032579;28;20041;-83
2023/10/03 06:22:32;;;;;;;25.92;11.05;;;19.10;99.90;;;;;;5029266;28;20397;-82
2023/10/03 06:24:58;;;;;;;27.98;10.48;;;19.00;99.90;;;;;;5023243;28;20080;-82
2023/10/03 06:27:26;;;;;;;22.50;10.52;;;19.10;99.90;;;;;;5029576;28;20095;-82
2023/10/03 06:29:52;;;;;;;24.08;10.43;;;19.10;99.90;;;;;;5027093;28;20408;-83
2023/10/03 06:32:18;;;;;;;20.02;9.23;;;19.00;99.90;;;;;;5021818;28;20052;-83
2023/10/03 06:34:43;;;;;;;17.98;8.70;;;19.00;99.90;;;;;;5006894;28;20052;-82
2023/10/03 06:37:09;;;;;;;17.60;8.05;;;19.00;99.90;;;;;;5007039;28;20507;-82
2023/10/03 06:39:35;;;;;;;18.60;8.45;;;19.00;99.90;;;;;;5015861;28;20377;-82
2023/10/03 06:42:00;;;;;;;19.08;7.68;;;18.90;99.90;;;;;;5022580;28;20122;-82
2023/10/03 06:44:26;;;;;;;19.75;8.65;;;18.90;99.90;;;;;;5025043;28;20203;-83
2023/10/03 06:46:52;;;;;;;19.25;7.90;;;18.90;99.90;;;;;;5038437;28;20036;-82
2023/10/03 06:49:19;;;;;;;14.23;7.43;;;19.00;99.90;;;;;;5024604;28;20060;-82
2023/10/03 06:51:45;;;;;;;15.55;7.20;;;18.90;99.90;;;;;;5019648;28;20063;-82
2023/10/03 06:54:12;;;;;;;18.42;7.45;;;18.90;99.90;;;;;;5021693;28;20049;-83
2023/10/03 06:56:38;;;;;;;18.63;7.15;;;18.90;99.90;;;;;;5006403;28;20049;-82
2023/10/03 06:59:10;;;;;;;18.08;7.20;;;18.90;99.90;;;;;;5021340;28;20048;-83
2023/10/03 07:01:41;;;;;;;11.98;6.25;;;19.00;99.90;;;;;;5023334;28;20265;-83
2023/10/03 07:04:07;;;;;;;18.23;6.20;;;18.90;99.90;;;;;;5022444;28;20094;-83
2023/10/03 07:06:34;;;;;;;15.95;6.60;;;18.80;99.90;;;;;;5003510;28;20220;-82
2023/10/03 07:09:03;;;;;;;14.70;6.40;;;18.70;99.90;;;;;;5013099;28;20103;-83
2023/10/03 07:11:28;;;;;;;16.65;6.45;;;18.60;99.90;;;;;;4986353;28;20056;-83
2023/10/03 07:13:54;;;;;;;12.70;6.13;;;18.60;99.90;;;;;;4988831;28;20038;-83
2023/10/03 07:16:20;;;;;;;13.32;6.03;;;18.50;99.90;;;;;;4987120;28;20068;-83
2023/10/03 07:18:46;;;;;;;13.30;5.95;;;18.50;99.90;;;;;;4989651;28;20107;-83
2023/10/03 07:21:11;;;;;;;15.02;6.15;;;18.50;99.90;;;;;;4985691;28;20042;-83
2023/10/03 07:23:39;;;;;;;16.15;5.78;;;18.40;99.90;;;;;;4984940;28;20346;-82
2023/10/03 07:26:04;;;;;;;15.38;5.45;;;18.40;99.90;;;;;;4985374;28;20042;-82
2023/10/03 07:28:32;;;;;;;10.35;4.60;;;18.40;99.90;;;;;;4987959;28;20552;-83
2023/10/03 07:30:57;;;;;;;11.55;4.20;;;18.40;99.90;;;;;;5004486;28;20041;-82
2023/10/03 07:33:23;;;;;;;9.75;4.45;;;18.40;99.90;;;;;;5002979;28;20417;-83
2023/10/03 07:35:49;;;;;;;10.77;4.28;;;18.40;99.90;;;;;;5007400;28;20041;-83
2023/10/03 07:38:15;;;;;;;10.40;4.18;;;18.40;99.90;;;;;;4985900;28;20128;-83
2023/10/03 07:40:41;;;;;;;11.18;4.63;;;18.30;99.90;;;;;;5007128;28;20120;-82
2023/10/03 07:43:09;;;;;;;12.80;4.38;;;18.30;99.90;;;;;;5022591;28;20041;-82
2023/10/03 07:45:37;;;;;;;11.73;4.55;;;18.10;99.90;;;;;;5006742;28;20056;-82
2023/10/03 07:48:07;;;;;;;10.65;4.10;;;18.00;99.90;;;;;;4987756;28;20068;-83
2023/10/03 07:50:37;;;;;;;13.40;4.85;;;17.80;99.90;;;;;;5002350;28;20041;-82
2023/10/03 07:53:11;;;;;;;9.68;4.47;;;17.80;99.90;;;;;;4990808;28;20476;-83
2023/10/03 07:55:38;;;;;;;15.48;4.97;;;17.70;99.90;;;;;;5005221;28;20211;-83
2023/10/03 07:58:05;;;;;;;14.63;5.07;;;17.60;99.90;;;;;;4985431;28;20034;-84
2023/10/03 08:00:31;;;;;;;13.77;5.13;;;17.60;99.90;;;;;;5005012;28;20590;-83
2023/10/03 08:02:57;;;;;;;10.73;4.55;;;17.60;99.90;;;;;;4990793;28;20045;-83
2023/10/03 08:05:27;;;;;;;14.55;4.97;;;17.60;99.90;;;;;;4998589;28;20575;-84
2023/10/03 08:07:57;;;;;;;18.10;5.22;;;17.60;99.90;;;;;;4989193;28;20052;-84
2023/10/03 08:10:24;;;;;;;12.82;4.78;;;17.60;99.90;;;;;;5014083;28;20037;-84
2023/10/03 08:12:52;;;;;;;12.70;4.60;;;17.60;99.90;;;;;;5020266;28;20108;-84
2023/10/03 08:15:23;;;;;;;9.07;4.25;;;17.50;99.90;;;;;;5037658;28;20084;-83
2023/10/03 08:17:53;;;;;;;13.73;4.07;;;17.40;99.90;;;;;;5022840;28;20032;-84
2023/10/03 08:20:20;;;;;;;12.35;4.45;;;17.40;99.90;;;;;;5021246;28;20270;-84
2023/10/03 08:22:52;;;;;;;12.32;3.67;;;17.30;99.90;;;;;;5026967;28;20044;-84
2023/10/03 08:25:23;;;;;;;13.13;3.33;;;17.20;99.90;;;;;;5027765;28;20373;-84
2023/10/03 08:27:50;;;;;;;8.98;2.83;;;17.10;99.90;;;;;;5013474;28;20037;-83
2023/10/03 08:30:27;;;;;;;9.20;2.92;;;17.00;99.90;;;;;;5010075;28;20059;-84
2023/10/03 08:33:06;;;;;;;9.77;2.50;;;17.00;99.90;;;;;;5009797;28;20044;-84
2023/10/03 08:35:35;;;;;;;9.93;2.78;;;16.90;99.90;;;;;;5036269;28;20044;-83
2023/10/03 08:38:05;;;;;;;6.32;2.08;;;16.90;99.90;;;;;;5023494;28;20215;-84
2023/10/03 08:40:39;;;;;;;5.75;2.13;;;16.90;99.90;;;;;;5022773;28;20406;-83
2023/10/03 08:43:10;;;;;;;5.72;1.58;;;16.80;99.90;;;;;;5010273;28;20043;-83
2023/10/03 08:45:43;;;;;;;4.13;1.40;;;16.80;99.90;;;;;;5021301;28;20049;-83
2023/10/03 08:48:10;;;;;;;6.70;1.40;;;16.80;99.90;;;;;;5004067;28;20033;-84
2023/10/03 08:50:41;;;;;;;3.63;1.58;;;16.70;99.90;;;;;;5009239;28;20056;-84
2023/10/03 08:53:15;;;;;;;6.32;1.23;;;16.80;99.90;;;;;;5004123;28;20265;-84
2023/10/03 08:55:46;;;;;;;5.57;1.60;;;16.80;99.90;;;;;;5021442;28;20095;-83
2023/10/03 08:58:18;;;;;;;5.78;1.13;;;17.00;99.90;;;;;;5018913;28;20094;-83
2023/10/03 09:00:49;;;;;;;6.38;1.08;;;16.90;99.90;;;;;;5005136;28;20044;-83
2023/10/03 09:03:17;;;;;;;4.85;1.27;;;17.20;99.90;;;;;;5021711;28;20302;-84
2023/10/03 09:05:43;;;;;;;5.05;0.95;;;17.10;99.90;;;;;;5022872;28;20033;-84
2023/10/03 09:08:14;;;;;;;4.25;0.95;;;17.00;99.90;;;;;;5019822;28;20052;-84
2023/10/03 09:10:55;;;;;;;7.50;0.98;;;17.00;99.90;;;;;;5008535;28;20164;-83
2023/10/03 09:13:25;;;;;;;3.80;1.10;;;17.00;99.90;;;;;;5025122;28;20033;-83
2023/10/03 09:15:59;;;;;;;6.43;0.88;;;16.80;99.90;;;;;;5021102;28;20030;-81
2023/10/03 09:18:26;;;;;;;5.25;1.40;;;16.20;99.90;;;;;;5039165;28;20039;-83
2023/10/03 09:20:52;;;;;;;2.75;0.88;;;15.80;99.90;;;;;;5007442;28;20497;-84
2023/10/03 09:23:18;;;;;;;5.22;0.90;;;15.80;99.90;;;;;;5006377;28;20119;-83
2023/10/03 09:25:52;;;;;;;3.92;0.95;;;15.60;99.90;;;;;;5023758;28;20425;-83
2023/10/03 09:28:27;;;;;;;4.10;0.95;;;15.60;99.90;;;;;;5021553;28;20047;-84
2023/10/03 09:30:55;;;;;;;6.28;1.15;;;15.50;99.90;;;;;;5021402;28;20040;-83
2023/10/03 09:33:22;;;;;;;5.45;0.75;;;15.30;99.90;;;;;;5011466;28;20201;-83
2023/10/03 09:36:00;;;;;;;5.53;1.00;;;15.20;99.90;;;;;;5023282;28;20365;-83
2023/10/03 09:38:42;;;;;;;6.60;0.93;;;15.20;99.90;;;;;;5022084;28;20033;-83
2023/10/03 09:41:09;;;;;;;6.05;0.70;;;15.20;99.90;;;;;;5005772;28;20045;-82
2023/10/03 09:43:35;;;;;;;2.38;0.50;;;15.30;99.90;;;;;;5020179;28;20496;-85
2023/10/03 09:46:01;;;;;;;0.68;0.35;;;15.30;99.90;;;;;;5020912;28;20048;-83
2023/10/03 09:48:27;;;;;;;2.78;0.28;;;15.20;99.90;;;;;;5012386;28;20029;-83
2023/10/03 09:50:55;;;;;;;1.67;0.50;;;15.30;99.90;;;;;;5006825;28;20037;-84
2023/10/03 09:53:27;;;;;;;2.55;0.50;;;15.30;99.90;;;;;;5008854;28;20056;-83
2023/10/03 09:55:56;;;;;;;2.55;0.43;;;15.40;99.90;;;;;;5025225;28;20034;-85
2023/10/03 09:58:31;;;;;;;0.55;0.30;;;15.40;99.90;;;;;;5000037;28;20032;-84
2023/10/03 10:00:58;;;;;;;1.92;0.70;;;15.40;99.90;;;;;;5018545;28;20657;-84
2023/10/03 10:03:27;;;;;;;3.90;0.90;;;15.40;99.90;;;;;;5021397;28;20491;-83
2023/10/03 10:06:15;;;;;;;2.97;0.50;;;15.50;99.90;;;;;;5005873;28;20041;-83
2023/10/03 10:08:58;;;;;;;2.15;0.85;;;15.50;99.90;;;;;;5022836;28;20085;-84
2023/10/03 10:11:27;;;;;;;2.75;0.88;;;15.50;99.90;;;;;;5007162;28;20084;-84
2023/10/03 10:14:09;;;;;;;3.67;0.70;;;15.40;99.90;;;;;;5005669;28;20162;-83
2023/10/03 10:17:04;;;;;;;1.65;0.40;;;15.10;99.90;;;;;;5014425;28;20223;-84
2023/10/03 10:20:27;;;;;;;1.52;0.30;;;14.90;99.90;;;;;;5006650;28;20052;-84
2023/10/03 10:31:16;;;;;;;3.72;0.98;;;15.10;99.90;;;;;;1236826;26;20519;-83
2023/10/03 10:33:47;;;;;;;3.00;0.60;;;15.30;99.90;;;;;;5017259;28;20046;-84
2023/10/03 10:36:12;;;;;;;1.35;0.70;;;15.30;99.90;;;;;;4992617;28;20554;-84
2023/10/03 10:38:41;;;;;;;4.75;0.65;;;15.40;99.90;;;;;;4985043;28;20049;-84
2023/10/03 10:41:17;;;;;;;4.75;0.60;;;15.50;99.90;;;;;;4971778;28;20052;-83
2023/10/03 10:44:23;;;;;;;3.15;0.90;;;15.50;99.90;;;;;;4988566;28;20089;-83
2023/10/03 10:47:04;;;;;;;3.30;0.70;;;15.50;99.90;;;;;;4966808;28;20125;-83
2023/10/03 10:49:36;;;;;;;2.22;0.57;;;15.60;99.90;;;;;;5001848;28;20053;-83
2023/10/03 10:52:06;;;;;;;3.53;0.70;;;15.60;99.90;;;;;;4984730;28;20054;-83
2023/10/03 10:54:35;;;;;;;3.67;0.80;;;15.70;99.90;;;;;;5003101;28;20364;-83
2023/10/03 10:57:10;;;;;;;3.05;0.73;;;15.90;99.90;;;;;;4987724;28;20050;-84
2023/10/03 10:59:36;;;;;;;;;;;15.90;99.90;;;;;;4971524;28;20262;-84
2023/10/03 11:02:04;;;;;;;2.78;1.15;;;16.00;99.90;;;;;;5002133;28;19936;-83
2023/10/03 11:04:34;;;;;;;1.75;0.70;;;16.00;99.90;;;;;;4970060;28;20041;-83
2023/10/03 11:07:00;;;;;;;2.90;0.70;;;16.00;99.90;;;;;;4998609;28;20525;-83
2023/10/03 11:09:26;;;;;;;3.78;0.65;;;15.80;99.90;;;;;;5002528;28;20125;-83
2023/10/03 11:11:52;;;;;;;3.83;0.60;;;15.80;99.90;;;;;;5004909;28;20033;-83
2023/10/03 11:14:31;;;;;;;1.67;0.55;;;15.70;99.90;;;;;;4982926;28;20549;-83
2023/10/03 11:16:58;;;;;;;4.00;1.02;;;15.40;99.90;;;;;;4976466;28;20094;-83
2023/10/03 11:19:25;;;;;;;2.58;0.60;;;15.20;99.90;;;;;;4968204;28;20088;-83
2023/10/03 11:21:51;;;;;;;4.80;0.90;;;15.10;99.90;;;;;;4966099;28;20493;-83
2023/10/03 11:24:22;;;;;;;4.50;1.02;;;15.00;99.90;;;;;;4988342;28;20049;-83
2023/10/03 11:26:59;;;;;;;3.03;0.80;;;15.00;99.90;;;;;;4983443;28;20333;-82
2023/10/03 11:29:55;;;;;;;4.93;1.27;;;15.00;99.90;;;;;;4989008;28;20038;-82
2023/10/03 11:32:23;;;;;;;;;;;15.20;99.90;;;;;;4961920;28;20055;-82
2023/10/03 11:34:52;;;;;;;2.75;1.00;;;15.20;99.90;;;;;;4993843;28;20237;-83
2023/10/03 11:37:40;;;;;;;2.38;0.95;;;15.30;99.90;;;;;;4985607;28;20485;-82
2023/10/03 11:40:23;;;;;;;2.03;0.90;;;15.40;99.90;;;;;;4970386;28;20034;-83
2023/10/03 11:42:58;;;;;;;2.90;1.00;;;15.40;99.90;;;;;;4986383;28;20034;-82
2023/10/03 11:45:31;;;;;;;3.58;1.40;;;15.30;99.90;;;;;;4981790;28;20049;-83
2023/10/03 11:48:00;;;;;;;5.03;1.58;;;15.30;99.90;;;;;;5009239;28;20041;-83
2023/10/03 11:50:26;;;;;;;7.18;1.65;;;15.30;99.90;;;;;;4987143;28;20048;-83
2023/10/03 11:52:56;;;;;;;5.35;1.55;;;15.30;99.90;;;;;;4985660;28;20620;-83
2023/10/03 11:55:22;;;;;;;4.82;1.58;;;15.30;99.90;;;;;;4984304;28;20092;-83
2023/10/03 11:57:48;;;;;;;4.68;1.38;;;15.30;99.90;;;;;;4989391;28;20044;-82
2023/10/03 12:00:17;;;;;;;3.78;1.63;;;15.30;99.90;;;;;;5005863;28;20127;-83
2023/10/03 12:02:47;;;;;;;5.20;2.08;;;15.20;99.90;;;;;;4987909;28;20599;-83
2023/10/03 12:05:13;;;;;;;4.13;1.40;;;15.00;99.90;;;;;;5010055;28;20054;-83
2023/10/03 12:07:40;;;;;;;4.20;1.42;;;15.00;99.90;;;;;;5001647;28;20030;-83
2023/10/03 12:10:12;;;;;;;5.72;1.45;;;14.90;99.90;;;;;;4985136;28;20129;-84
2023/10/03 12:12:38;;;;;;;9.48;1.98;;;14.90;99.90;;;;;;4985021;28;20498;-83
2023/10/03 12:15:12;;;;;;;8.93;2.22;;;14.90;99.90;;;;;;4989422;28;20077;-83
2023/10/03 12:17:48;;;;;;;6.97;1.57;;;15.00;99.90;;;;;;4969327;28;20075;-83
2023/10/03 12:20:17;;;;;;;5.18;1.67;;;14.80;99.90;;;;;;4986541;28;20292;-84
2023/10/03 12:22:49;;;;;;;6.45;1.80;;;14.60;99.90;;;;;;4981352;28;20116;-84
2023/10/03 12:25:16;;;;;;;5.68;2.10;;;14.60;99.90;;;;;;4966339;28;20046;-83
2023/10/03 12:27:43;;;;;;;7.57;2.03;;;14.70;99.90;;;;;;4968023;28;20038;-83
2023/10/03 12:30:11;;;;;;;3.60;1.73;;;14.70;99.90;;;;;;4983786;28;20038;-84
2023/10/03 12:32:42;;;;;;;4.22;2.17;;;14.60;99.90;;;;;;4981150;28;20046;-83
2023/10/03 12:35:09;;;;;;;5.55;1.55;;;14.80;99.90;;;;;;4970907;28;20520;-83
2023/10/03 12:37:36;;;;;;;3.20;1.30;;;14.80;99.90;;;;;;4966382;28;20266;-83
2023/10/03 12:40:08;;;;;;;4.75;1.30;;;15.00;99.90;;;;;;4968386;28;20051;-83
2023/10/03 12:42:35;;;;;;;3.70;1.70;;;15.00;99.90;;;;;;4930275;28;20547;-83
2023/10/03 12:45:01;;;;;;;5.13;1.65;;;15.00;99.90;;;;;;4962104;28;20047;-83
2023/10/03 12:47:31;;;;;;;10.05;2.47;;;15.00;99.90;;;;;;4947550;28;20128;-83
2023/10/03 12:49:58;;;;;;;4.18;1.40;;;15.00;99.90;;;;;;4947454;28;20463;-83
2023/10/03 12:52:23;;;;;;;5.88;1.50;;;15.10;99.90;;;;;;4968571;28;20057;-83
2023/10/03 12:54:49;;;;;;;7.18;1.90;;;15.10;99.90;;;;;;4962863;28;20494;-84
2023/10/03 12:57:15;;;;;;;4.07;1.75;;;15.10;99.90;;;;;;4934747;28;20038;-83